Pie Town, New Mexico
Current Conditions -  °F | °C
As of 12:17 AM on Saturday 29 Nov 2014 (Local Time) from KGNT Reporting Station
Clear Clear  
Wind Chill: -8°   Ceiling: Unl
Heat Index: -8°   Visibility: 10mi
Dew Point: -19°   Wind: 0mph
Humidity: 42%   Direction: NA
Pressure: 30.13"   Gusts: NA
Location:  34.3°N, 108.15°W
Report Text: KGNT 290717Z AUTO 00000KT 10SM CLR M08/M19 A3013 RMK AO2
Loading
Personal Weather Stations






























Interactive Weather Map New forecast layout! Learn more

10-Day Weather Forecast

Advertisements
Track Severe Weather on mobile